Time;durP1;ratioP1;P1;durP2;ratioP2;P2;SDS_P1;SDS_P2;PMS_P1;PMS_P2;Temp;Humidity;BMP_temperature;BMP_pressure;BME280_temperature;BME280_humidity;BME280_pressure;Samples;Min_cycle;Max_cycle;Signal;HPM_P1;HPM_P2
2022/07/07 00:01:09;;;;;;;;;2.67;1.67;;;;;19.91;100.00;102005.03;5013541;28;46050;-77
2022/07/07 00:03:38;;;;;;;;;4.00;3.00;;;;;20.05;100.00;102022.34;5013846;28;45740;-79
2022/07/07 00:06:04;;;;;;;;;1.33;1.33;;;;;19.99;100.00;102011.34;5014172;28;45892;-80
2022/07/07 00:08:30;;;;;;;;;2.00;1.00;;;;;19.97;100.00;102019.06;4996245;28;46341;-79
2022/07/07 00:10:56;;;;;;;;;2.00;2.00;;;;;19.95;100.00;102007.34;5014074;28;46527;-78
2022/07/07 00:13:22;;;;;;;;;2.00;2.00;;;;;19.87;100.00;102003.81;5014630;28;45828;-80
2022/07/07 00:15:48;;;;;;;;;1.00;1.00;;;;;19.89;100.00;102011.94;5013957;28;45913;-79
2022/07/07 00:18:13;;;;;;;;;2.33;1.00;;;;;19.89;100.00;102015.56;4996718;28;46309;-80
2022/07/07 00:20:39;;;;;;;;;3.67;3.33;;;;;19.74;100.00;101984.53;5014655;28;46370;-79
2022/07/07 00:23:04;;;;;;;;;1.67;1.67;;;;;19.93;100.00;102019.56;5008504;28;45720;-80
2022/07/07 00:25:30;;;;;;;;;2.00;2.00;;;;;19.93;100.00;102024.28;5014394;28;45770;-80
2022/07/07 00:27:55;;;;;;;;;2.00;2.00;;;;;19.89;100.00;102023.06;4997316;28;46254;-78
2022/07/07 00:30:21;;;;;;;;;1.00;1.00;;;;;19.91;100.00;102024.53;5013666;28;46200;-79
2022/07/07 00:32:46;;;;;;;;;2.00;2.00;;;;;19.71;100.00;101996.16;4992211;28;45763;-79
2022/07/07 00:35:15;;;;;;;;;3.67;1.67;;;;;19.75;100.00;101994.59;4995288;28;45734;-76
2022/07/07 00:37:41;;;;;;;;;2.33;1.67;;;;;19.88;100.00;102013.88;5011645;28;47052;-79
2022/07/07 00:40:07;;;;;;;;;5.33;2.00;;;;;19.86;100.00;102007.69;4991764;28;47435;-79
2022/07/07 00:42:33;;;;;;;;;2.00;2.00;;;;;19.65;100.00;101977.63;5007145;28;45839;-80
2022/07/07 00:44:58;;;;;;;;;2.00;1.00;;;;;19.83;100.00;101996.19;4982637;28;46831;-76
2022/07/07 00:47:24;;;;;;;;;4.00;4.00;;;;;19.64;100.00;101976.78;5011444;28;46338;-79
2022/07/07 00:49:50;;;;;;;;;3.00;2.00;;;;;19.55;100.00;101955.94;5012876;28;46269;-76
2022/07/07 00:52:16;;;;;;;;;10.33;10.33;;;;;19.79;100.00;101995.84;5008681;28;45712;-78
2022/07/07 00:54:50;;;;;;;;;3.00;3.00;;;;;19.73;100.00;101980.91;4989267;28;45853;-79
2022/07/07 00:57:16;;;;;;;;;5.67;4.33;;;;;19.76;100.00;101991.56;4995322;28;47009;-78
2022/07/07 00:59:41;;;;;;;;;9.00;9.00;;;;;19.75;100.00;101989.00;5011445;28;45833;-77
2022/07/07 01:02:07;;;;;;;;;3.00;2.00;;;;;19.72;100.00;101975.59;5013130;28;45760;-76
2022/07/07 01:04:34;;;;;;;;;6.33;5.33;;;;;19.71;100.00;101976.66;5012597;28;45410;-77
2022/07/07 01:07:01;;;;;;;;;1.67;1.67;;;;;19.68;100.00;101982.72;4994595;28;47063;-76
2022/07/07 01:09:26;;;;;;;;;5.33;4.00;;;;;19.68;100.00;101980.75;5012082;28;46357;-76
2022/07/07 01:11:54;;;;;;;;;5.00;4.00;;;;;19.64;100.00;101976.78;5008060;28;45550;-79
2022/07/07 01:14:21;;;;;;;;;3.00;2.00;;;;;19.65;100.00;101972.06;4994071;28;45451;-75
2022/07/07 01:16:47;;;;;;;;;9.00;4.67;;;;;19.63;100.00;101983.44;5011997;28;45632;-77
2022/07/07 01:19:13;;;;;;;;;2.67;2.67;;;;;19.61;100.00;101981.97;5013715;28;45776;-77
2022/07/07 01:21:49;;;;;;;;;2.00;2.00;;;;;19.58;100.00;101978.59;5013626;28;45368;-78
2022/07/07 01:24:16;;;;;;;;;3.67;2.00;;;;;19.58;100.00;101984.16;4995195;28;45503;-78
2022/07/07 01:26:42;;;;;;;;;1.67;1.67;;;;;19.56;100.00;101980.75;4991855;28;47589;-76
2022/07/07 01:29:07;;;;;;;;;1.33;1.33;;;;;19.53;100.00;101989.56;5012393;28;45423;-76
2022/07/07 01:31:32;;;;;;;;;2.00;2.00;;;;;19.46;100.00;101974.94;5003886;28;45778;-75
2022/07/07 01:33:58;;;;;;;;;5.67;4.00;;;;;19.48;100.00;101972.75;5011013;28;45473;-78
2022/07/07 01:36:23;;;;;;;;;5.00;3.33;;;;;19.48;100.00;101972.75;5002139;28;45865;-77
2022/07/07 01:38:49;;;;;;;;;7.00;6.00;;;;;19.49;100.00;101984.72;5012059;28;45473;-78
2022/07/07 01:41:14;;;;;;;;;7.00;5.67;;;;;19.43;100.00;101964.28;4997227;28;45741;-78
2022/07/07 01:43:40;;;;;;;;;7.00;4.33;;;;;19.43;100.00;101969.84;5013100;28;45718;-79
2022/07/07 01:46:05;;;;;;;;;5.67;2.67;;;;;19.45;100.00;101972.41;4994763;28;45393;-78
2022/07/07 01:48:32;;;;;;;;;2.00;2.00;;;;;19.43;100.00;101980.97;5014152;28;48305;-79
2022/07/07 01:50:58;;;;;;;;;3.00;3.00;;;;;19.41;100.00;101972.84;5013034;28;45489;-78
2022/07/07 01:53:24;;;;;;;;;6.33;4.67;;;;;19.39;100.00;101975.03;5011930;28;45734;-78
2022/07/07 01:55:50;;;;;;;;;7.00;2.00;;;;;19.37;100.00;101959.66;5002981;28;45935;-78
2022/07/07 01:58:15;;;;;;;;;3.00;3.00;;;;;19.26;100.00;101943.78;5012313;28;46073;-79
2022/07/07 02:00:41;;;;;;;;;2.00;2.00;;;;;19.36;100.00;101960.75;4992787;28;45740;-78
2022/07/07 02:03:06;;;;;;;;;2.00;2.00;;;;;19.28;100.00;101945.25;4993983;28;45580;-78
2022/07/07 02:05:32;;;;;;;;;1.67;1.67;;;;;19.33;100.00;101952.88;4993349;28;47112;-77
2022/07/07 02:07:57;;;;;;;;;5.00;5.00;;;;;19.34;100.00;101951.78;5011492;28;45533;-76
2022/07/07 02:13:06;;;;;;;;;3.00;3.00;;;;;19.30;100.00;101947.81;5011717;28;45776;-76
2022/07/07 02:15:32;;;;;;;;;2.67;2.00;;;;;19.26;100.00;101936.28;5010856;28;45952;-76
2022/07/07 02:17:59;;;;;;;;;1.33;1.33;;;;;19.24;100.00;101946.81;5011400;28;45807;-74
2022/07/07 02:20:24;;;;;;;;;3.00;3.00;;;;;19.23;100.00;101948.72;5011400;28;45553;-74
2022/07/07 02:22:50;;;;;;;;;4.00;2.33;;;;;19.25;100.00;101948.50;4994017;28;45282;-77
2022/07/07 02:25:15;;;;;;;;;4.33;2.67;;;;;19.21;100.00;101950.91;4990351;28;45730;-75
2022/07/07 02:27:41;;;;;;;;;4.00;2.00;;;;;19.19;100.00;101957.78;4991409;28;45787;-74
2022/07/07 02:30:07;;;;;;;;;2.33;2.33;;;;;19.20;100.00;101949.22;5011912;28;45460;-75
2022/07/07 02:32:33;;;;;;;;;6.33;2.33;;;;;19.20;100.00;101954.75;4993376;28;45619;-75
2022/07/07 02:34:58;;;;;;;;;2.33;2.33;;;;;19.18;100.00;101948.59;5012008;28;45914;-76
2022/07/07 02:37:25;;;;;;;;;2.33;2.33;;;;;19.13;100.00;101954.03;5008612;28;45805;-79
2022/07/07 02:39:51;;;;;;;;;3.33;2.00;;;;;19.16;100.00;101958.25;5012472;28;45634;-77
2022/07/07 02:42:17;;;;;;;;;2.00;2.00;;;;;19.15;100.00;101951.03;4993971;28;45465;-76
2022/07/07 02:44:42;;;;;;;;;2.00;2.00;;;;;19.08;100.00;101951.09;5010917;28;45431;-75
2022/07/07 02:47:08;;;;;;;;;2.33;2.00;;;;;19.12;100.00;101952.34;4992585;28;47365;-75
2022/07/07 02:49:33;;;;;;;;;2.33;2.33;;;;;19.11;100.00;101956.19;5010940;28;45787;-74
2022/07/07 02:51:59;;;;;;;;;3.00;1.00;;;;;19.04;100.00;101956.31;5011598;28;45747;-77
2022/07/07 02:54:24;;;;;;;;;4.00;3.00;;;;;18.81;100.00;101920.88;5002920;28;45821;-78
2022/07/07 02:56:49;;;;;;;;;2.00;2.00;;;;;19.05;100.00;101963.53;4989058;28;46081;-78
2022/07/07 02:59:15;;;;;;;;;3.00;3.00;;;;;19.05;100.00;101969.09;5003104;28;45776;-75
2022/07/07 03:01:40;;;;;;;;;2.00;2.00;;;;;19.02;100.00;101957.63;4992351;28;45470;-74
2022/07/07 03:04:06;;;;;;;;;2.67;2.67;;;;;19.03;100.00;101962.09;5010683;28;45502;-76
2022/07/07 03:06:31;;;;;;;;;1.00;1.00;;;;;19.00;100.00;101959.81;4991737;28;46824;-75
2022/07/07 03:08:56;;;;;;;;;2.00;2.00;;;;;18.83;100.00;101931.75;5000563;28;45717;-75
2022/07/07 03:11:22;;;;;;;;;7.00;4.00;;;;;18.90;100.00;101938.09;5009993;28;45458;-76
2022/07/07 03:13:47;;;;;;;;;3.00;2.00;;;;;18.91;100.00;101938.94;4992214;28;47039;-75
2022/07/07 03:16:13;;;;;;;;;2.67;2.67;;;;;18.85;100.00;101936.03;5010833;28;45740;-74
2022/07/07 03:18:38;;;;;;;;;2.00;2.00;;;;;18.86;100.00;101943.31;4993828;28;45440;-78
2022/07/07 03:21:03;;;;;;;;;3.00;1.67;;;;;18.89;100.00;101958.63;4993291;28;45449;-77
2022/07/07 03:23:29;;;;;;;;;2.00;2.00;;;;;18.87;100.00;101956.09;5011756;28;45520;-75
2022/07/07 03:25:54;;;;;;;;;1.00;1.00;;;;;18.85;100.00;101951.84;5003234;28;45680;-78
2022/07/07 03:28:20;;;;;;;;;2.00;2.00;;;;;18.87;100.00;101958.03;4989442;28;45696;-76
2022/07/07 03:30:46;;;;;;;;;3.67;2.00;;;;;18.85;100.00;101958.28;5009462;28;45708;-78
2022/07/07 03:33:11;;;;;;;;;3.33;2.33;;;;;18.84;100.00;101956.53;5010652;28;45409;-75
2022/07/07 03:35:38;;;;;;;;;1.33;1.33;;;;;18.85;100.00;101951.84;5010708;28;46254;-76
2022/07/07 03:38:03;;;;;;;;;1.00;1.00;;;;;18.83;100.00;101957.63;5010623;28;45790;-75
2022/07/07 03:40:29;;;;;;;;;3.67;3.33;;;;;18.62;100.00;101908.97;5010695;28;45642;-74
2022/07/07 03:42:54;;;;;;;;;3.00;3.00;;;;;18.82;100.00;101946.75;4997049;28;45957;-74
2022/07/07 03:45:20;;;;;;;;;2.00;2.00;;;;;18.80;100.00;101947.00;5009182;28;46859;-74
2022/07/07 03:47:45;;;;;;;;;4.00;2.33;;;;;18.73;100.00;101937.91;4992600;28;45911;-77
2022/07/07 03:50:11;;;;;;;;;2.67;2.67;;;;;18.80;100.00;101949.78;4980124;28;45747;-77
2022/07/07 03:52:37;;;;;;;;;2.33;1.00;;;;;18.67;100.00;101922.16;5009931;28;46039;-78
2022/07/07 03:55:02;;;;;;;;;5.00;3.33;;;;;18.75;100.00;101930.16;5000133;28;47336;-75
2022/07/07 03:57:28;;;;;;;;;3.00;2.00;;;;;18.81;100.00;101934.78;4979779;28;45362;-76
2022/07/07 03:59:53;;;;;;;;;3.33;2.00;;;;;18.81;100.00;101945.06;4988634;28;45720;-79
2022/07/07 04:02:19;;;;;;;;;2.00;2.00;;;;;18.78;100.00;101932.47;4989756;28;45884;-78
2022/07/07 04:04:44;;;;;;;;;3.00;3.00;;;;;18.81;100.00;101934.78;4987862;28;46886;-78
2022/07/07 04:07:10;;;;;;;;;2.00;2.00;;;;;18.80;100.00;101929.44;5011201;28;45455;-78
2022/07/07 04:09:35;;;;;;;;;4.00;2.33;;;;;18.84;100.00;101939.84;5002833;28;45617;-78
2022/07/07 04:12:00;;;;;;;;;2.33;2.33;;;;;18.79;100.00;101925.84;5012331;28;45477;-76
2022/07/07 04:14:26;;;;;;;;;5.33;4.33;;;;;18.83;100.00;101927.06;5013349;28;45790;-78
2022/07/07 04:16:51;;;;;;;;;2.00;2.00;;;;;18.77;100.00;101911.34;4999559;28;45481;-78
2022/07/07 04:19:17;;;;;;;;;2.00;2.00;;;;;19.09;100.00;101941.69;4992436;28;45433;-77
2022/07/07 04:21:42;;;;;;;;;6.00;3.00;;;;;19.16;100.00;101924.91;4986422;28;45486;-78
2022/07/07 04:24:08;;;;;;;;;4.00;4.00;;;;;19.22;100.00;101912.81;4976771;28;46191;-78
2022/07/07 04:26:33;;;;;;;;;3.00;3.00;;;;;19.68;100.00;101927.03;4978616;28;45377;-79
2022/07/07 04:28:58;;;;;;;;;5.00;4.00;;;;;19.95;100.00;101921.03;4978421;28;45699;-75
2022/07/07 04:31:24;;;;;;;;;7.33;6.33;;;;;19.91;100.00;101892.81;5005616;28;45918;-77
2022/07/07 04:33:49;;;;;;;;;5.00;4.67;;;;;20.12;100.00;101933.13;4994851;28;47169;-78
2022/07/07 04:36:15;;;;;;;;;4.33;3.33;;;;;20.09;100.00;101928.03;5013829;28;45780;-75
2022/07/07 04:38:40;;;;;;;;;7.67;7.00;;;;;20.01;100.00;101920.88;5005358;28;45507;-76
2022/07/07 04:41:06;;;;;;;;;21.33;18.33;;;;;20.07;100.00;101942.19;5009715;28;45469;-78
2022/07/07 04:43:31;;;;;;;;;4.67;4.00;;;;;19.92;100.00;101919.56;4983344;28;47004;-76
2022/07/07 04:45:57;;;;;;;;;7.67;7.67;;;;;20.08;100.00;101940.25;4993724;28;45818;-76
2022/07/07 04:48:22;;;;;;;;;11.33;10.67;;;;;20.15;100.00;101959.63;5013217;28;45432;-76
2022/07/07 04:50:47;;;;;;;;;6.67;6.00;;;;;20.12;100.00;101955.41;4995775;28;47451;-79
2022/07/07 04:53:14;;;;;;;;;3.00;3.00;;;;;20.13;100.00;101957.09;4995669;28;46881;-78
2022/07/07 04:55:39;;;;;;;;;7.67;4.33;;;;;20.07;100.00;101947.75;5012951;28;45423;-79
2022/07/07 04:58:04;;;;;;;;;4.00;4.00;;;;;19.87;100.00;101919.47;5004806;28;46013;-75
2022/07/07 05:00:30;;;;;;;;;3.33;3.33;;;;;20.07;100.00;101958.06;5012648;28;46068;-75
2022/07/07 05:02:55;;;;;;;;;5.00;3.67;;;;;20.07;100.00;101972.81;4994986;28;47339;-79
2022/07/07 05:05:21;;;;;;;;;3.67;3.33;;;;;19.98;100.00;101956.72;4990200;28;45849;-77
2022/07/07 05:07:46;;;;;;;;;3.00;3.00;;;;;20.06;100.00;101971.16;5003861;28;46576;-74
2022/07/07 05:10:11;;;;;;;;;2.33;2.33;;;;;20.11;100.00;101970.41;5011890;28;45542;-77
2022/07/07 05:12:37;;;;;;;;;4.00;3.67;;;;;20.14;100.00;101967.13;4994556;28;46260;-74
2022/07/07 05:15:03;;;;;;;;;6.33;2.67;;;;;20.19;100.00;101972.81;5007350;28;45972;-78
2022/07/07 05:17:28;;;;;;;;;3.67;1.33;;;;;20.21;100.00;101969.78;4992172;28;45699;-77
2022/07/07 05:19:54;;;;;;;;;4.00;4.00;;;;;20.24;100.00;101956.22;5007226;28;45645;-78
2022/07/07 05:22:19;;;;;;;;;3.00;3.00;;;;;20.26;100.00;101970.75;4980020;28;46960;-76
2022/07/07 05:24:45;;;;;;;;;8.67;5.67;;;;;20.30;100.00;101962.78;5003255;28;45373;-75
2022/07/07 05:27:11;;;;;;;;;4.33;3.00;;;;;20.35;100.00;101976.81;5005027;28;45725;-74
2022/07/07 05:29:36;;;;;;;;;4.67;3.00;;;;;20.36;100.00;101975.72;5174788;22;46057;-81
2022/07/07 05:32:02;;;;;;;;;4.00;4.00;;;;;20.36;100.00;101978.50;5028643;28;45631;-79
2022/07/07 05:34:28;;;;;;;;;5.00;3.00;;;;;20.29;100.00;101956.34;5037758;28;45433;-80
2022/07/07 05:36:55;;;;;;;;;2.00;2.00;;;;;20.46;100.00;101983.44;5045573;28;45524;-83
2022/07/07 05:39:23;;;;;;;;;3.00;3.00;;;;;20.47;100.00;101971.22;5023406;28;45576;-80
2022/07/07 05:41:48;;;;;;;;;4.67;3.67;;;;;20.44;100.00;101961.41;5041594;28;45864;-79
2022/07/07 05:44:14;;;;;;;;;3.00;2.67;;;;;20.61;100.00;101980.13;5044344;28;45603;-80
2022/07/07 05:46:39;;;;;;;;;5.00;3.33;;;;;20.59;100.00;101966.44;5038607;28;45729;-80
2022/07/07 05:49:05;;;;;;;;;4.33;4.33;;;;;20.74;100.00;101977.09;5042264;28;45465;-79
2022/07/07 05:51:30;;;;;;;;;2.67;2.67;;;;;20.81;100.00;101985.34;5033531;28;45532;-79
2022/07/07 05:53:55;;;;;;;;;5.00;4.00;;;;;20.83;100.00;101982.31;5029190;28;45410;-78
2022/07/07 05:56:21;;;;;;;;;3.00;1.67;;;;;20.86;100.00;101981.81;5034023;28;45597;-78
2022/07/07 05:58:47;;;;;;;;;2.67;2.67;;;;;20.94;100.00;101982.28;5016480;28;45439;-78
2022/07/07 06:01:13;;;;;;;;;5.00;2.33;;;;;20.99;100.00;101982.34;5032106;28;47672;-76
2022/07/07 06:03:38;;;;;;;;;2.00;2.00;;;;;21.04;100.00;101983.56;5016937;28;45481;-78
2022/07/07 06:06:04;;;;;;;;;2.67;2.67;;;;;21.06;100.00;101978.56;5033120;28;45405;-79
2022/07/07 06:08:30;;;;;;;;;5.00;4.00;;;;;21.12;100.00;101989.59;5026318;28;45763;-73
2022/07/07 06:10:56;;;;;;;;;3.00;3.00;;;;;21.17;100.00;101995.25;5013999;28;46302;-72
2022/07/07 06:13:21;;;;;;;;;2.00;2.00;;;;;21.22;100.00;102002.88;5016955;28;45828;-72
2022/07/07 06:15:47;;;;;;;;;4.00;3.00;;;;;21.21;100.00;101998.38;5026551;28;45626;-73
2022/07/07 06:18:13;;;;;;;;;3.67;2.00;;;;;21.16;100.00;102006.66;5022376;28;45600;-73
2022/07/07 06:20:41;;;;;;;;;6.33;3.33;;;;;21.24;100.00;102008.19;5022371;28;48215;-71
2022/07/07 06:23:07;;;;;;;;;3.00;3.00;;;;;21.26;100.00;102012.44;5019996;28;45950;-73
2022/07/07 06:25:33;;;;;;;;;8.67;4.67;;;;;21.26;100.00;102018.03;5027124;28;45445;-74
2022/07/07 06:27:59;;;;;;;;;5.00;4.00;;;;;21.26;100.00;102023.59;5027048;28;45536;-74
2022/07/07 06:30:25;;;;;;;;;3.00;3.00;;;;;21.23;100.00;102015.72;5026417;28;45710;-74
2022/07/07 06:32:54;;;;;;;;;2.00;2.00;;;;;21.36;100.00;102025.72;5027796;28;45684;-72
2022/07/07 06:35:20;;;;;;;;;2.00;2.00;;;;;21.45;100.00;102031.75;5030204;28;45898;-71
2022/07/07 06:37:47;;;;;;;;;2.33;2.33;;;;;21.52;100.00;102035.28;5025337;28;45872;-73
2022/07/07 06:40:16;;;;;;;;;3.75;3.75;;;;;21.58;100.00;102030.63;5022742;28;45641;-73
2022/07/07 06:42:42;;;;;;;;;4.33;3.00;;;;;21.71;100.00;102037.81;5005074;28;46577;-73
2022/07/07 06:45:08;;;;;;;;;4.00;3.00;;;;;21.79;100.00;102029.88;5012285;28;45821;-73
2022/07/07 06:47:34;;;;;;;;;4.00;3.00;;;;;21.88;100.00;102035.06;5021969;28;45492;-73
2022/07/07 06:50:00;;;;;;;;;2.33;2.00;;;;;21.91;100.00;102010.25;5012191;28;46313;-72
2022/07/07 06:52:25;;;;;;;;;3.00;3.00;;;;;22.13;100.00;102034.63;5020145;28;45536;-72
2022/07/07 06:54:50;;;;;;;;;2.00;2.00;;;;;22.26;100.00;102034.28;5022670;28;45430;-71
2022/07/07 06:57:16;;;;;;;;;1.00;1.00;;;;;22.45;100.00;102018.06;5006511;28;46000;-72
2022/07/07 06:59:42;;;;;;;;;3.67;3.00;;;;;22.63;100.00;102024.47;5015098;28;46847;-73
2022/07/07 07:02:07;;;;;;;;;3.67;2.00;;;;;22.88;100.00;102026.75;5028646;28;45822;-77
2022/07/07 07:04:33;;;;;;;;;2.00;2.00;;;;;23.15;100.00;102017.59;5039257;28;45426;-80
2022/07/07 07:06:58;;;;;;;;;3.00;3.00;;;;;23.54;100.00;102020.22;5035381;28;45484;-79
2022/07/07 07:09:24;;;;;;;;;2.33;2.00;;;;;24.04;100.00;102007.81;5031663;28;45746;-77
2022/07/07 07:11:49;;;;;;;;;3.00;3.00;;;;;24.54;100.00;102016.78;5029740;28;45451;-79
2022/07/07 07:14:16;;;;;;;;;3.00;3.00;;;;;25.02;100.00;102016.75;5013914;28;45720;-79
2022/07/07 07:16:41;;;;;;;;;4.25;2.50;;;;;25.42;100.00;102003.97;5028435;28;45697;-80
2022/07/07 07:19:08;;;;;;;;;2.33;2.00;;;;;26.02;100.00;102011.88;5015879;28;45427;-81
2022/07/07 07:21:33;;;;;;;;;2.00;2.00;;;;;26.46;100.00;102013.19;5020186;28;45866;-80
2022/07/07 07:23:59;;;;;;;;;2.00;2.00;;;;;26.92;100.00;102027.09;5027045;28;45855;-78
2022/07/07 07:26:24;;;;;;;;;1.50;1.50;;;;;27.35;100.00;102020.97;5033282;28;45844;-80
2022/07/07 07:28:50;;;;;;;;;2.00;1.00;;;;;28.03;100.00;102024.97;5022485;28;45728;-79
2022/07/07 07:31:16;;;;;;;;;2.00;1.50;;;;;29.16;100.00;102023.66;5029136;28;45886;-82
2022/07/07 07:33:42;;;;;;;;;1.25;1.25;;;;;30.75;100.00;102034.25;5023344;28;45473;-79
2022/07/07 07:36:09;;;;;;;;;0.75;0.75;;;;;31.97;93.23;102040.25;5020731;28;45407;-79
2022/07/07 07:38:37;;;;;;;;;3.00;2.00;;;;;33.11;83.00;102033.06;5031431;28;45693;-77
2022/07/07 07:41:03;;;;;;;;;1.00;1.00;;;;;34.77;73.00;102034.84;5026929;28;45479;-79
2022/07/07 07:43:28;;;;;;;;;1.00;1.00;;;;;36.21;60.97;102041.19;5017696;28;45579;-78
2022/07/07 07:45:54;;;;;;;;;1.25;1.00;;;;;37.68;52.12;102037.75;5033330;28;45776;-78
2022/07/07 07:48:19;;;;;;;;;0.75;0.75;;;;;38.96;45.16;102032.97;5030058;28;45493;-80
2022/07/07 07:50:48;;;;;;;;;0.50;0.50;;;;;40.23;40.99;102020.06;5036133;28;45700;-80
2022/07/07 07:53:14;;;;;;;;;2.25;1.00;;;;;41.48;36.13;102031.84;5024873;28;45634;-79
2022/07/07 07:55:39;;;;;;;;;1.75;0.50;;;;;42.55;33.46;102037.09;5021445;28;46145;-81
2022/07/07 07:58:05;;;;;;;;;1.00;1.00;;;;;43.48;30.93;102038.97;5036072;28;46000;-80
2022/07/07 08:00:31;;;;;;;;;1.00;1.00;;;;;43.44;29.37;102023.66;5045128;28;45382;-79
2022/07/07 08:02:57;;;;;;;;;0.25;0.25;;;;;43.49;28.25;102038.56;5039855;28;44812;-82
2022/07/07 08:05:22;;;;;;;;;0.00;0.00;;;;;42.75;29.50;102039.75;5035035;28;45880;-78
2022/07/07 08:07:48;;;;;;;;;0.00;0.00;;;;;41.55;29.57;102045.53;5035937;28;46799;-75
2022/07/07 08:10:16;;;;;;;;;1.00;1.00;;;;;40.53;30.12;102028.81;5037494;28;47270;-82
2022/07/07 08:12:44;;;;;;;;;0.00;0.00;;;;;39.61;31.54;102037.31;5030836;28;45430;-79
2022/07/07 08:15:10;;;;;;;;;0.00;0.00;;;;;40.06;31.83;102036.59;5021033;28;45959;-79
2022/07/07 08:17:36;;;;;;;;;0.00;0.00;;;;;39.87;31.73;102037.44;5032208;28;46191;-78
2022/07/07 08:20:03;;;;;;;;;0.00;0.00;;;;;39.05;32.56;102013.50;5030370;28;45797;-78
2022/07/07 08:22:28;;;;;;;;;0.00;0.00;;;;;38.08;34.07;102020.50;5042806;28;45563;-78
2022/07/07 08:24:57;;;;;;;;;0.00;0.00;;;;;37.00;37.04;102025.91;5023839;28;45778;-80
2022/07/07 08:27:23;;;;;;;;;0.50;0.00;;;;;36.00;39.22;102017.59;5032744;28;46009;-73
2022/07/07 08:29:49;;;;;;;;;0.75;0.75;;;;;35.62;42.10;102018.63;5010723;28;46050;-73
2022/07/07 08:32:24;;;;;;;;;1.00;1.00;;;;;36.74;40.56;102011.97;5019358;28;45438;-74
2022/07/07 08:34:50;;;;;;;;;1.00;1.00;;;;;38.33;37.19;102011.75;5002433;28;46006;-73
2022/07/07 08:37:17;;;;;;;;;1.00;1.00;;;;;39.96;33.85;102019.09;5028917;28;45871;-73
2022/07/07 08:39:42;;;;;;;;;1.00;1.00;;;;;41.70;30.90;102012.78;5023384;28;45632;-73
2022/07/07 08:42:09;;;;;;;;;1.00;1.00;;;;;42.63;28.57;102017.81;5031224;28;45485;-75
2022/07/07 08:44:35;;;;;;;;;0.00;0.00;;;;;41.90;28.77;102022.06;5025280;28;45837;-73
2022/07/07 08:47:01;;;;;;;;;0.00;0.00;;;;;40.84;29.39;102009.56;5032475;28;48150;-72
2022/07/07 08:49:27;;;;;;;;;1.00;1.00;;;;;40.33;29.74;102027.19;5027008;28;46228;-72
2022/07/07 08:51:55;;;;;;;;;0.00;0.00;;;;;39.76;30.74;102029.81;5013550;28;45798;-73
2022/07/07 08:54:20;;;;;;;;;0.00;0.00;;;;;38.87;31.17;102026.63;5023468;28;45699;-73
2022/07/07 08:56:45;;;;;;;;;0.50;0.50;;;;;37.77;32.94;102036.44;5025948;28;46227;-73
2022/07/07 08:59:13;;;;;;;;;1.00;1.00;;;;;36.81;35.06;102035.09;5027070;28;45909;-81
2022/07/07 09:01:40;;;;;;;;;0.00;0.00;;;;;35.86;36.39;102035.88;5024413;28;45568;-80
2022/07/07 09:04:06;;;;;;;;;1.50;1.50;;;;;34.88;38.23;102035.28;5034873;28;45747;-80
2022/07/07 09:06:33;;;;;;;;;2.00;0.00;;;;;34.06;42.17;102034.25;5039977;28;45540;-78
2022/07/07 09:08:59;;;;;;;;;0.75;0.75;;;;;33.17;46.44;102030.91;5037880;28;44840;-80
2022/07/07 09:11:29;;;;;;;;;0.50;0.50;;;;;32.55;51.00;102038.41;5038569;28;45723;-79
2022/07/07 09:14:12;;;;;;;;;1.00;0.00;;;;;32.29;53.95;102021.25;5014911;28;45407;-80
2022/07/07 09:16:38;;;;;;;;;0.25;0.25;;;;;32.23;57.80;102045.25;5036355;28;48553;-81
2022/07/07 09:19:18;;;;;;;;;1.50;1.00;;;;;32.09;58.57;102036.81;5019272;28;45493;-80
2022/07/07 09:21:44;;;;;;;;;0.25;0.25;;;;;31.90;60.02;102042.69;5035777;28;45701;-81
2022/07/07 09:24:13;;;;;;;;;0.00;0.00;;;;;31.59;61.96;102040.63;5038642;28;45457;-80
2022/07/07 09:26:53;;;;;;;;;0.50;0.50;;;;;31.20;64.14;102033.56;5036705;28;45521;-80
2022/07/07 09:29:21;;;;;;;;;0.50;0.50;;;;;30.93;67.09;102019.13;5027576;28;45063;-79
2022/07/07 09:32:00;;;;;;;;;1.50;1.50;;;;;30.90;69.34;102053.75;5021646;28;45505;-81
2022/07/07 09:34:31;;;;;;;;;1.00;1.00;;;;;30.72;71.38;102055.56;5041999;28;45383;-81
2022/07/07 09:39:46;;;;;;;;;2.00;0.00;;;;;29.65;77.64;102067.59;5023505;28;45393;-81
2022/07/07 09:42:27;;;;;;;;;1.75;1.75;;;;;28.89;81.15;102053.38;5018707;28;45785;-79
2022/07/07 09:44:57;;;;;;;;;0.00;0.00;;;;;28.45;84.91;102072.22;5015015;28;45949;-80
2022/07/07 09:47:26;;;;;;;;;0.00;0.00;;;;;28.00;88.07;102065.88;5030387;28;45444;-81
2022/07/07 09:50:09;;;;;;;;;0.50;0.50;;;;;27.61;90.33;102081.66;5015056;28;45345;-79
2022/07/07 09:52:37;;;;;;;;;1.00;1.00;;;;;27.41;93.57;102093.91;5022144;28;45450;-81
2022/07/07 09:55:09;;;;;;;;;1.00;1.00;;;;;27.07;95.36;102105.03;5016631;28;46142;-80
2022/07/07 09:57:35;;;;;;;;;0.75;0.75;;;;;26.74;97.02;102115.84;5007539;28;46853;-80
2022/07/07 10:00:01;;;;;;;;;0.75;0.75;;;;;26.50;98.79;102105.16;5036762;28;45318;-78
2022/07/07 10:02:31;;;;;;;;;1.00;1.00;;;;;26.35;99.84;102106.03;5032162;28;45343;-80
2022/07/07 10:04:59;;;;;;;;;0.25;0.25;;;;;26.18;100.00;102119.53;5036006;28;45429;-80
2022/07/07 10:07:30;;;;;;;;;1.00;0.00;;;;;26.01;100.00;102122.63;5039238;28;47025;-80
2022/07/07 10:10:06;;;;;;;;;3.00;1.75;;;;;25.95;100.00;102129.34;5025695;28;45521;-80
2022/07/07 10:12:33;;;;;;;;;0.00;0.00;;;;;25.97;100.00;102125.09;5024676;28;45553;-77
2022/07/07 10:15:04;;;;;;;;;2.00;0.25;;;;;26.08;100.00;102131.63;5019305;28;45625;-73
2022/07/07 10:17:30;;;;;;;;;1.00;1.00;;;;;26.14;100.00;102130.50;5018250;28;47445;-73
2022/07/07 10:19:57;;;;;;;;;2.00;1.00;;;;;26.30;100.00;102133.31;5016327;28;45862;-76
2022/07/07 10:22:27;;;;;;;;;2.50;2.25;;;;;26.47;100.00;102136.69;5028991;28;45895;-74
2022/07/07 10:24:58;;;;;;;;;0.00;0.00;;;;;26.75;100.00;102138.06;5019772;28;45841;-72
2022/07/07 10:27:27;;;;;;;;;1.00;1.00;;;;;26.99;100.00;102143.06;5043637;28;45350;-81
2022/07/07 10:29:57;;;;;;;;;1.00;1.00;;;;;27.24;100.00;102147.75;5046424;28;45429;-81
2022/07/07 10:32:23;;;;;;;;;0.00;0.00;;;;;27.59;99.65;102145.94;5013864;28;45443;-75
2022/07/07 10:34:54;;;;;;;;;1.00;1.00;;;;;27.79;98.39;102155.41;5028902;28;45372;-73
2022/07/07 10:37:21;;;;;;;;;2.00;0.75;;;;;27.96;97.83;102153.03;5018102;28;47242;-73
2022/07/07 10:39:49;;;;;;;;;1.00;1.00;;;;;28.01;96.98;102155.00;5046022;28;45283;-81
2022/07/07 10:42:15;;;;;;;;;0.25;0.25;;;;;27.90;95.85;102150.53;5048997;28;44811;-74
2022/07/07 10:44:42;;;;;;;;;2.00;2.00;;;;;27.72;97.89;102154.88;5046663;28;45461;-79
2022/07/07 10:47:11;;;;;;;;;1.00;1.00;;;;;27.52;96.92;102156.69;5051152;28;45891;-73
2022/07/07 10:49:39;;;;;;;;;1.75;1.00;;;;;27.34;97.44;102161.00;5031732;28;45428;-74
2022/07/07 10:52:13;;;;;;;;;1.25;1.25;;;;;27.03;98.69;102161.06;5017963;28;45838;-74
2022/07/07 10:54:43;;;;;;;;;1.00;1.00;;;;;26.97;100.00;102161.38;5036025;28;45503;-72
2022/07/07 10:57:08;;;;;;;;;2.50;2.00;;;;;27.03;100.00;102166.69;5052274;28;45433;-79
2022/07/07 11:00:06;;;;;;;;;5.50;1.50;;;;;27.24;100.00;102161.00;5024153;28;44758;-82
2022/07/07 11:02:32;;;;;;;;;2.00;1.00;;;;;27.59;98.92;102162.84;5044276;28;45358;-77
2022/07/07 11:05:00;;;;;;;;;2.00;2.00;;;;;27.99;96.69;102144.03;5039648;28;45361;-80
2022/07/07 11:07:28;;;;;;;;;1.50;1.50;;;;;28.38;94.19;102161.19;5060777;28;46319;-75
2022/07/07 11:10:06;;;;;;;;;3.00;1.00;;;;;28.50;93.98;102162.50;5038746;28;45473;-74
2022/07/07 11:12:45;;;;;;;;;4.00;2.00;;;;;28.58;91.50;102161.00;5032359;28;45367;-82
2022/07/07 11:15:27;;;;;;;;;1.00;1.00;;;;;28.59;91.77;102162.66;5047866;28;44784;-79
2022/07/07 11:17:52;;;;;;;;;0.75;0.75;;;;;28.55;92.57;102172.91;5032453;28;47961;-73
2022/07/07 11:20:21;;;;;;;;;3.00;2.00;;;;;28.57;90.72;102164.97;5049136;28;45505;-73
2022/07/07 11:22:52;;;;;;;;;2.25;1.00;;;;;28.61;89.89;102182.16;5049384;28;44847;-73